Time;durP1;ratioP1;P1;durP2;ratioP2;P2;SDS_P1;SDS_P2;PMS_P1;PMS_P2;Temp;Humidity;BMP_temperature;BMP_pressure;BME280_temperature;BME280_humidity;BME280_pressure;Samples;Min_cycle;Max_cycle;Signal;HPM_P1;HPM_P2
2021/04/10 00:01:01;;;;;;;3.07;1.90;;;22.70;25.10;;;;;;4972654;28;20208;-55
2021/04/10 00:03:27;;;;;;;1.87;1.60;;;22.70;25.10;;;;;;4990922;28;20206;-47
2021/04/10 00:05:53;;;;;;;1.73;1.63;;;22.70;25.20;;;;;;4991766;28;20652;-51
2021/04/10 00:08:19;;;;;;;1.93;1.63;;;22.70;25.20;;;;;;4974567;28;20621;-48
2021/04/10 00:10:45;;;;;;;2.17;1.87;;;22.70;25.20;;;;;;4976535;28;20317;-44
2021/04/10 00:13:11;;;;;;;1.90;1.70;;;22.70;25.20;;;;;;4972659;28;20257;-48
2021/04/10 00:15:37;;;;;;;2.20;2.00;;;22.70;25.20;;;;;;4973132;28;20452;-46
2021/04/10 00:18:03;;;;;;;1.80;1.70;;;22.70;25.20;;;;;;4985614;28;20231;-44
2021/04/10 00:20:28;;;;;;;1.97;1.50;;;22.70;25.20;;;;;;4983501;28;20566;-52
2021/04/10 00:22:54;;;;;;;2.70;1.73;;;22.70;25.20;;;;;;4992028;28;20207;-52
2021/04/10 00:25:20;;;;;;;1.77;1.60;;;22.70;25.20;;;;;;4990328;28;20242;-48
2021/04/10 00:27:46;;;;;;;1.70;1.60;;;22.70;25.30;;;;;;4976369;28;20211;-49
2021/04/10 00:30:12;;;;;;;1.80;1.60;;;22.70;25.20;;;;;;4982496;28;20242;-45
2021/04/10 00:32:38;;;;;;;2.17;1.67;;;22.70;25.30;;;;;;4990356;28;20574;-44
2021/04/10 00:35:04;;;;;;;1.90;1.80;;;22.70;25.30;;;;;;4991069;28;20203;-47
2021/04/10 00:37:30;;;;;;;2.17;1.63;;;22.70;25.30;;;;;;4987643;28;20227;-48
2021/04/10 00:39:56;;;;;;;2.30;1.90;;;22.70;25.30;;;;;;4978750;28;20244;-48
2021/04/10 00:42:22;;;;;;;2.07;1.83;;;22.70;25.30;;;;;;4982830;28;20250;-53
2021/04/10 00:44:48;;;;;;;2.07;1.70;;;22.70;25.30;;;;;;4978848;28;20663;-48
2021/04/10 00:47:14;;;;;;;2.80;1.70;;;22.70;25.40;;;;;;4988879;28;20620;-45
2021/04/10 00:49:40;;;;;;;1.83;1.73;;;22.70;25.30;;;;;;4987462;28;20226;-50
2021/04/10 00:52:06;;;;;;;2.60;1.70;;;22.70;25.40;;;;;;4972138;28;20207;-47
2021/04/10 00:54:32;;;;;;;3.20;1.90;;;22.70;25.40;;;;;;4974582;28;20218;-49
2021/04/10 00:56:58;;;;;;;1.70;1.60;;;22.70;25.40;;;;;;4973991;28;20230;-50
2021/04/10 00:59:23;;;;;;;1.70;1.60;;;22.70;25.40;;;;;;4974489;28;20259;-44
2021/04/10 01:01:49;;;;;;;1.70;1.60;;;22.70;25.50;;;;;;4972784;28;20575;-46
2021/04/10 01:04:15;;;;;;;1.67;1.57;;;22.70;25.50;;;;;;4973731;28;20211;-44
2021/04/10 01:06:41;;;;;;;1.97;1.77;;;22.70;25.50;;;;;;4988779;28;20261;-51
2021/04/10 01:09:07;;;;;;;1.77;1.50;;;22.70;25.50;;;;;;4990771;28;20241;-48
2021/04/10 01:11:33;;;;;;;2.33;2.00;;;22.70;25.60;;;;;;4986616;28;20202;-50
2021/04/10 01:13:59;;;;;;;2.40;1.73;;;22.70;25.60;;;;;;4990961;28;20545;-49
2021/04/10 01:16:25;;;;;;;2.87;1.70;;;22.70;25.50;;;;;;4993543;28;20230;-47
2021/04/10 01:18:51;;;;;;;1.60;1.50;;;22.70;25.60;;;;;;4980487;28;20293;-48
2021/04/10 01:21:17;;;;;;;2.23;1.87;;;22.70;25.60;;;;;;4988423;28;20215;-45
2021/04/10 01:23:43;;;;;;;2.03;1.83;;;22.70;25.70;;;;;;4994694;28;20202;-46
2021/04/10 01:26:09;;;;;;;1.83;1.73;;;22.70;25.70;;;;;;4996057;28;20210;-49
2021/04/10 01:28:35;;;;;;;1.70;1.60;;;22.70;25.60;;;;;;5006273;28;20225;-49
2021/04/10 01:31:01;;;;;;;1.80;1.70;;;22.70;25.70;;;;;;4973965;28;20231;-52
2021/04/10 01:33:28;;;;;;;1.93;1.50;;;22.70;25.70;;;;;;4989463;28;20198;-49
2021/04/10 01:35:54;;;;;;;1.50;1.40;;;22.70;25.70;;;;;;4986847;28;20203;-48
2021/04/10 01:38:20;;;;;;;1.63;1.50;;;22.70;25.70;;;;;;4995003;28;20203;-51
2021/04/10 01:40:46;;;;;;;2.20;1.60;;;22.70;25.80;;;;;;4986916;28;20199;-45
2021/04/10 01:43:12;;;;;;;1.60;1.50;;;22.70;25.80;;;;;;4988550;28;20219;-48
2021/04/10 01:45:38;;;;;;;2.13;1.80;;;22.70;25.80;;;;;;4983839;28;20207;-47
2021/04/10 01:48:04;;;;;;;1.50;1.40;;;22.60;25.80;;;;;;4991901;28;20648;-43
2021/04/10 01:50:30;;;;;;;2.23;2.03;;;22.70;25.90;;;;;;4981039;28;20211;-45
2021/04/10 01:52:56;;;;;;;1.60;1.50;;;22.60;26.30;;;;;;4978858;28;20211;-44
2021/04/10 01:55:21;;;;;;;1.53;1.43;;;22.60;25.80;;;;;;4975238;28;20208;-46
2021/04/10 01:57:47;;;;;;;2.17;1.80;;;22.70;25.90;;;;;;4975065;28;20245;-44
2021/04/10 02:00:15;;;;;;;1.50;1.40;;;22.60;25.90;;;;;;4978856;28;20585;-45
2021/04/10 02:02:41;;;;;;;1.80;1.40;;;22.60;25.90;;;;;;4993886;28;20289;-52
2021/04/10 02:05:07;;;;;;;2.17;1.40;;;22.60;26.00;;;;;;4986207;28;20221;-45
2021/04/10 02:07:33;;;;;;;1.37;1.27;;;22.60;25.90;;;;;;4975151;28;20255;-44
2021/04/10 02:09:59;;;;;;;1.60;1.50;;;22.60;25.90;;;;;;4976548;28;20241;-44
2021/04/10 02:12:25;;;;;;;1.20;1.10;;;22.60;26.00;;;;;;4990671;28;20242;-45
2021/04/10 02:14:51;;;;;;;1.80;1.43;;;22.60;26.00;;;;;;4979353;28;20204;-44
2021/04/10 02:17:17;;;;;;;1.50;1.40;;;22.60;25.90;;;;;;4993646;28;20228;-45
2021/04/10 02:19:42;;;;;;;1.73;1.60;;;22.60;26.00;;;;;;4993554;28;20234;-43
2021/04/10 02:22:08;;;;;;;1.43;1.33;;;22.60;26.10;;;;;;4994188;28;20693;-45
2021/04/10 02:24:34;;;;;;;1.77;1.40;;;22.60;26.00;;;;;;4985266;28;20207;-52
2021/04/10 02:27:00;;;;;;;2.00;1.60;;;22.60;26.10;;;;;;4975374;28;20218;-48
2021/04/10 02:29:26;;;;;;;2.33;1.53;;;22.60;26.10;;;;;;4973744;28;20294;-53
2021/04/10 02:31:52;;;;;;;1.47;1.37;;;22.60;26.10;;;;;;4973483;28;20649;-46
2021/04/10 02:34:18;;;;;;;2.33;1.43;;;22.60;26.10;;;;;;4975137;28;20214;-47
2021/04/10 02:36:44;;;;;;;1.67;1.30;;;22.60;26.10;;;;;;4988513;28;20226;-43
2021/04/10 02:39:10;;;;;;;1.40;1.30;;;22.60;26.10;;;;;;4993797;28;20242;-50
2021/04/10 02:41:36;;;;;;;1.40;1.30;;;22.60;26.10;;;;;;4988913;28;20215;-44
2021/04/10 02:44:02;;;;;;;1.60;1.50;;;22.60;26.10;;;;;;4978898;28;20214;-46
2021/04/10 02:46:28;;;;;;;1.97;1.27;;;22.60;26.20;;;;;;4974867;28;20574;-45
2021/04/10 02:48:54;;;;;;;2.43;1.40;;;22.60;26.10;;;;;;4978983;28;20245;-44
2021/04/10 02:51:20;;;;;;;1.70;1.30;;;22.60;26.10;;;;;;4991214;28;20210;-46
2021/04/10 02:53:46;;;;;;;1.73;1.50;;;22.60;26.20;;;;;;4992125;28;20199;-47
2021/04/10 02:56:12;;;;;;;1.53;1.40;;;22.60;26.20;;;;;;4993352;28;20221;-44
2021/04/10 02:58:38;;;;;;;2.43;1.60;;;22.60;26.20;;;;;;4992343;28;20562;-45
2021/04/10 03:01:03;;;;;;;1.80;1.50;;;22.60;26.20;;;;;;4976364;28;20208;-46
2021/04/10 03:03:32;;;;;;;2.60;1.40;;;22.60;26.20;;;;;;4973858;28;20273;-45
2021/04/10 03:05:58;;;;;;;1.93;1.50;;;22.60;26.50;;;;;;4973614;28;20203;-45
2021/04/10 03:08:24;;;;;;;1.53;1.43;;;22.60;26.60;;;;;;4973641;28;20238;-45
2021/04/10 03:10:49;;;;;;;1.60;1.27;;;22.60;26.50;;;;;;4972585;28;20210;-49
2021/04/10 03:13:15;;;;;;;1.90;1.70;;;22.60;26.40;;;;;;4973871;28;20675;-48
2021/04/10 03:15:41;;;;;;;2.27;1.70;;;22.60;26.30;;;;;;4973340;28;20362;-48
2021/04/10 03:18:07;;;;;;;2.47;1.80;;;22.60;26.20;;;;;;4973720;28;20251;-45
2021/04/10 03:20:33;;;;;;;2.40;1.40;;;22.60;26.20;;;;;;4987905;28;20207;-45
2021/04/10 03:22:59;;;;;;;2.23;1.93;;;22.60;26.20;;;;;;4988554;28;20208;-52
2021/04/10 03:25:25;;;;;;;2.73;1.40;;;22.60;26.10;;;;;;4992625;28;20580;-46
2021/04/10 03:27:51;;;;;;;1.90;1.57;;;22.60;26.10;;;;;;4992160;28;20208;-51
2021/04/10 03:30:17;;;;;;;3.00;1.70;;;22.60;26.10;;;;;;4974722;28;20232;-48
2021/04/10 03:32:43;;;;;;;1.90;1.70;;;22.60;26.10;;;;;;4973505;28;20612;-48
2021/04/10 03:35:09;;;;;;;1.70;1.60;;;22.60;26.00;;;;;;4973959;28;20210;-48
2021/04/10 03:37:35;;;;;;;1.50;1.40;;;22.60;26.00;;;;;;4984493;28;20310;-45
2021/04/10 03:40:01;;;;;;;2.20;1.37;;;22.60;26.00;;;;;;4991157;28;20271;-45
2021/04/10 03:42:27;;;;;;;1.87;1.40;;;22.60;26.00;;;;;;4981189;28;20217;-48
2021/04/10 03:44:53;;;;;;;2.47;1.47;;;22.60;26.00;;;;;;4986321;28;20198;-47
2021/04/10 03:47:19;;;;;;;3.07;1.60;;;22.60;26.00;;;;;;4992355;28;20765;-55
2021/04/10 03:49:45;;;;;;;1.40;1.23;;;22.60;26.00;;;;;;4984691;28;20234;-49
2021/04/10 03:52:10;;;;;;;1.90;1.70;;;22.60;26.00;;;;;;4978338;28;20266;-46
2021/04/10 03:54:36;;;;;;;2.77;1.50;;;22.60;26.00;;;;;;4976828;28;20218;-51
2021/04/10 03:57:02;;;;;;;1.67;1.57;;;22.60;26.00;;;;;;4972549;28;20238;-45
2021/04/10 03:59:28;;;;;;;1.57;1.40;;;22.60;26.00;;;;;;4981712;28;20708;-49
2021/04/10 04:01:54;;;;;;;1.63;1.23;;;22.60;25.90;;;;;;4988480;28;20202;-47
2021/04/10 04:04:20;;;;;;;2.03;1.90;;;22.60;25.90;;;;;;4992236;28;20210;-50
2021/04/10 04:06:46;;;;;;;2.07;1.33;;;22.60;25.90;;;;;;4990909;28;20249;-52
2021/04/10 04:09:12;;;;;;;1.60;1.50;;;22.60;25.90;;;;;;4974002;28;20284;-44
2021/04/10 04:11:38;;;;;;;2.57;1.60;;;22.60;25.90;;;;;;4990231;28;20702;-45
2021/04/10 04:14:04;;;;;;;1.97;1.60;;;22.60;25.90;;;;;;4975911;28;20210;-47
2021/04/10 04:16:30;;;;;;;1.50;1.40;;;22.60;25.80;;;;;;4972522;28;20324;-50
2021/04/10 04:18:56;;;;;;;1.70;1.33;;;22.60;25.80;;;;;;4984345;28;20234;-48
2021/04/10 04:21:22;;;;;;;2.07;1.60;;;22.60;25.80;;;;;;4990032;28;20269;-47
2021/04/10 04:23:48;;;;;;;2.27;1.80;;;22.60;25.80;;;;;;4980104;28;20213;-46
2021/04/10 04:26:14;;;;;;;2.90;1.37;;;22.60;25.70;;;;;;4981526;28;20225;-51
2021/04/10 04:28:40;;;;;;;1.50;1.40;;;22.50;25.70;;;;;;4999863;28;20225;-51
2021/04/10 04:31:06;;;;;;;2.33;1.83;;;22.60;25.80;;;;;;4975582;28;20206;-52
2021/04/10 04:33:32;;;;;;;1.77;1.67;;;22.50;25.70;;;;;;4990239;28;20269;-47
2021/04/10 04:35:57;;;;;;;1.50;1.40;;;22.50;25.80;;;;;;4990721;28;20579;-44
2021/04/10 04:38:23;;;;;;;1.50;1.40;;;22.50;25.70;;;;;;4989486;28;20243;-44
2021/04/10 04:40:49;;;;;;;1.80;1.40;;;22.50;25.70;;;;;;4990528;28;20664;-50
2021/04/10 04:43:15;;;;;;;2.03;1.50;;;22.50;25.60;;;;;;4973435;28;20214;-49
2021/04/10 04:45:41;;;;;;;2.60;1.50;;;22.50;25.70;;;;;;4982015;28;20277;-46
2021/04/10 04:48:08;;;;;;;1.70;1.50;;;22.50;25.70;;;;;;5029285;23;20230;-47
2021/04/10 04:50:33;;;;;;;1.83;1.50;;;22.50;25.70;;;;;;5030951;28;20255;-47
2021/04/10 04:52:59;;;;;;;2.30;1.47;;;22.50;25.60;;;;;;5029947;28;20270;-47
2021/04/10 04:55:25;;;;;;;1.67;1.53;;;22.50;25.70;;;;;;5029729;28;20215;-49
2021/04/10 04:57:51;;;;;;;1.67;1.50;;;22.50;25.70;;;;;;5029992;28;20235;-47
2021/04/10 05:00:17;;;;;;;1.67;1.57;;;22.50;25.70;;;;;;5030709;28;20217;-45
2021/04/10 05:02:43;;;;;;;1.87;1.43;;;22.50;25.60;;;;;;5030803;28;20200;-51
2021/04/10 05:05:09;;;;;;;2.50;1.70;;;22.50;25.60;;;;;;5030502;28;20204;-48
2021/04/10 05:07:35;;;;;;;1.60;1.50;;;22.50;25.60;;;;;;5031222;28;20232;-49
2021/04/10 05:10:01;;;;;;;2.27;1.60;;;22.50;25.60;;;;;;5029232;28;20618;-48
2021/04/10 05:12:27;;;;;;;1.90;1.47;;;22.50;25.60;;;;;;5031556;28;20210;-52
2021/04/10 05:14:54;;;;;;;3.03;1.73;;;22.50;25.60;;;;;;5030063;28;20241;-45
2021/04/10 05:17:20;;;;;;;1.50;1.37;;;22.50;25.50;;;;;;5030892;28;20294;-45
2021/04/10 05:19:46;;;;;;;2.40;1.47;;;22.50;25.60;;;;;;5029843;28;20204;-45
2021/04/10 05:22:12;;;;;;;1.83;1.73;;;22.50;25.60;;;;;;5031245;28;20203;-45
2021/04/10 05:24:38;;;;;;;1.77;1.67;;;22.50;25.60;;;;;;5030143;28;20572;-44
2021/04/10 05:27:04;;;;;;;1.67;1.43;;;22.50;25.60;;;;;;5030830;28;20198;-48
2021/04/10 05:29:30;;;;;;;2.40;1.70;;;22.50;25.50;;;;;;5029872;28;20220;-52
2021/04/10 05:31:55;;;;;;;1.70;1.60;;;22.50;25.60;;;;;;5030676;28;20626;-54
2021/04/10 05:34:21;;;;;;;1.87;1.27;;;22.50;25.50;;;;;;5028638;28;20205;-48
2021/04/10 05:36:47;;;;;;;1.53;1.43;;;22.50;25.50;;;;;;5028827;28;20225;-52
2021/04/10 05:39:13;;;;;;;1.57;1.47;;;22.50;25.60;;;;;;5030024;28;20720;-54
2021/04/10 05:41:39;;;;;;;1.47;1.17;;;22.50;25.60;;;;;;5030646;28;20220;-53
2021/04/10 05:44:05;;;;;;;1.77;1.47;;;22.50;25.60;;;;;;5029730;28;20209;-45
2021/04/10 05:46:31;;;;;;;1.50;1.40;;;22.50;25.70;;;;;;5030786;28;20557;-55
2021/04/10 05:48:57;;;;;;;1.60;1.50;;;22.50;25.70;;;;;;5030047;28;20240;-46
2021/04/10 05:51:23;;;;;;;2.93;1.50;;;22.50;25.70;;;;;;5029464;28;20248;-49
2021/04/10 05:53:49;;;;;;;1.57;1.47;;;22.50;25.70;;;;;;5030083;28;20598;-52
2021/04/10 05:56:15;;;;;;;1.70;1.60;;;22.50;25.70;;;;;;5030188;28;20260;-45
2021/04/10 05:58:41;;;;;;;2.57;1.40;;;22.50;25.70;;;;;;5029763;28;20229;-51
2021/04/10 06:01:07;;;;;;;1.57;1.40;;;22.50;25.70;;;;;;5032895;28;20207;-47
2021/04/10 06:03:33;;;;;;;2.07;1.40;;;22.50;25.70;;;;;;5033738;28;20263;-48
2021/04/10 06:05:59;;;;;;;2.40;1.60;;;22.50;25.70;;;;;;5034124;28;20743;-51
2021/04/10 06:08:25;;;;;;;2.23;1.40;;;22.50;25.70;;;;;;5034110;28;20238;-50
2021/04/10 06:10:51;;;;;;;1.43;1.33;;;22.50;25.70;;;;;;5032828;28;20213;-47
2021/04/10 06:13:19;;;;;;;1.33;1.23;;;22.50;25.70;;;;;;5034186;28;20210;-48
2021/04/10 06:15:44;;;;;;;1.50;1.40;;;22.50;25.70;;;;;;5033387;28;20217;-47
2021/04/10 06:18:12;;;;;;;1.50;1.40;;;22.50;25.80;;;;;;5033138;28;20768;-46
2021/04/10 06:20:38;;;;;;;1.60;1.50;;;22.50;25.90;;;;;;5033889;28;20208;-45
2021/04/10 06:23:04;;;;;;;1.50;1.40;;;22.50;25.80;;;;;;5032966;28;20605;-49
2021/04/10 06:25:29;;;;;;;1.50;1.40;;;22.50;25.80;;;;;;5033233;28;20211;-51
2021/04/10 06:27:55;;;;;;;1.93;1.50;;;22.50;25.70;;;;;;5033938;28;20233;-51
2021/04/10 06:30:21;;;;;;;1.47;1.37;;;22.50;25.70;;;;;;5032561;28;20210;-46
2021/04/10 06:32:47;;;;;;;1.73;1.40;;;22.50;25.80;;;;;;5030967;28;20206;-51
2021/04/10 06:35:13;;;;;;;2.57;1.70;;;22.50;25.80;;;;;;5033868;28;20212;-51
2021/04/10 06:37:41;;;;;;;2.23;1.40;;;22.50;25.80;;;;;;5032928;28;20752;-58
2021/04/10 06:40:07;;;;;;;1.80;1.57;;;22.50;25.80;;;;;;5032503;28;20208;-50
2021/04/10 06:42:33;;;;;;;2.07;1.70;;;22.50;25.70;;;;;;5032854;28;20658;-47
2021/04/10 06:44:59;;;;;;;1.60;1.50;;;22.50;26.60;;;;;;5031523;28;20206;-46
2021/04/10 06:47:26;;;;;;;1.60;1.40;;;22.60;26.20;;;;;;5029198;28;20270;-47
2021/04/10 06:49:52;;;;;;;1.57;1.40;;;22.60;26.10;;;;;;5030144;28;20209;-45
2021/04/10 06:52:18;;;;;;;1.30;1.20;;;22.60;26.00;;;;;;5017098;28;20205;-50
2021/04/10 06:54:44;;;;;;;2.73;1.43;;;22.60;26.00;;;;;;5032344;28;20250;-47
2021/04/10 06:57:10;;;;;;;1.30;1.20;;;22.70;26.10;;;;;;5030807;28;20974;-48
2021/04/10 06:59:36;;;;;;;3.23;1.80;;;22.70;26.00;;;;;;5022135;28;20539;-51
2021/04/10 07:02:02;;;;;;;1.47;1.20;;;22.70;26.00;;;;;;5031913;28;20205;-50
2021/04/10 07:04:28;;;;;;;4.93;1.63;;;22.70;26.10;;;;;;5033381;28;20206;-48
2021/04/10 07:06:54;;;;;;;1.33;1.23;;;22.80;26.10;;;;;;5031605;28;20229;-53
2021/04/10 07:09:20;;;;;;;5.07;1.50;;;22.80;26.10;;;;;;5027603;28;20241;-53
2021/04/10 07:11:46;;;;;;;5.10;1.70;;;22.80;26.70;;;;;;5029761;28;20221;-51
2021/04/10 07:14:12;;;;;;;3.20;1.80;;;22.90;27.70;;;;;;5029484;28;20200;-48
2021/04/10 07:16:38;;;;;;;3.13;1.80;;;22.90;27.20;;;;;;5030108;28;20232;-46
2021/04/10 07:19:04;;;;;;;1.63;1.53;;;22.80;26.90;;;;;;5027038;28;20572;-49
2021/04/10 07:21:30;;;;;;;2.13;1.30;;;22.80;26.80;;;;;;5015392;28;20199;-52
2021/04/10 07:23:55;;;;;;;2.00;1.50;;;22.80;26.90;;;;;;5022987;28;20217;-53
2021/04/10 07:26:21;;;;;;;3.57;1.57;;;22.80;27.90;;;;;;5032143;28;20558;-49
2021/04/10 07:28:47;;;;;;;1.57;1.37;;;22.90;29.50;;;;;;5031151;28;20225;-55
2021/04/10 07:31:13;;;;;;;3.30;1.40;;;23.00;29.60;;;;;;5031756;28;20213;-54
2021/04/10 07:33:39;;;;;;;2.17;1.53;;;23.00;30.20;;;;;;5030771;28;20225;-49
2021/04/10 07:36:05;;;;;;;2.87;1.80;;;23.00;29.20;;;;;;5030027;28;20208;-48
2021/04/10 07:38:31;;;;;;;4.57;1.80;;;22.90;30.40;;;;;;5028582;28;20336;-62
2021/04/10 07:40:57;;;;;;;8.43;1.87;;;22.90;30.30;;;;;;5029885;28;20201;-62
2021/04/10 07:43:23;;;;;;;6.97;1.87;;;23.00;29.90;;;;;;5031098;28;20670;-56
2021/04/10 07:45:49;;;;;;;3.77;1.50;;;22.90;29.50;;;;;;5026633;28;20225;-64
2021/04/10 07:48:17;;;;;;;8.13;2.17;;;22.90;29.50;;;;;;5016268;28;20245;-60
2021/04/10 07:50:43;;;;;;;5.23;2.27;;;23.00;30.80;;;;;;5031751;28;20213;-59
2021/04/10 07:53:09;;;;;;;3.13;1.77;;;22.90;29.30;;;;;;5029803;28;20271;-58
2021/04/10 07:55:35;;;;;;;4.13;1.70;;;22.90;29.20;;;;;;5030425;28;20650;-59
2021/04/10 07:58:01;;;;;;;3.80;1.50;;;22.90;29.20;;;;;;5026364;28;20273;-57
2021/04/10 08:00:27;;;;;;;6.13;2.00;;;22.80;29.10;;;;;;5027075;28;20216;-55
2021/04/10 08:02:53;;;;;;;3.13;1.90;;;22.90;29.30;;;;;;5031013;28;20570;-58
2021/04/10 08:05:19;;;;;;;3.23;1.80;;;22.80;28.80;;;;;;5031442;28;20213;-60
2021/04/10 08:07:45;;;;;;;2.80;1.90;;;22.80;29.10;;;;;;5030559;28;20230;-59
2021/04/10 08:10:11;;;;;;;4.57;2.47;;;22.80;29.00;;;;;;5030487;28;20207;-60
2021/04/10 08:12:37;;;;;;;4.60;1.80;;;21.80;25.30;;;;;;5029132;28;20217;-60
2021/04/10 08:15:03;;;;;;;3.70;1.90;;;19.40;20.90;;;;;;5029619;28;20196;-59
2021/04/10 08:17:29;;;;;;;3.60;1.73;;;18.30;23.30;;;;;;5030633;28;20238;-59
2021/04/10 08:19:55;;;;;;;3.03;1.60;;;19.60;25.70;;;;;;5030049;28;20698;-58
2021/04/10 08:22:21;;;;;;;2.87;1.80;;;20.60;26.10;;;;;;5031263;28;20248;-59
2021/04/10 08:24:47;;;;;;;1.90;1.80;;;21.20;26.60;;;;;;5029909;28;20206;-59
2021/04/10 08:27:13;;;;;;;2.37;1.80;;;21.70;26.20;;;;;;5029933;28;20770;-58
2021/04/10 08:29:39;;;;;;;2.90;1.40;;;21.90;26.00;;;;;;5029491;28;20261;-60
2021/04/10 08:32:05;;;;;;;1.80;1.50;;;22.10;26.10;;;;;;5028958;28;20244;-60
2021/04/10 08:34:31;;;;;;;4.80;1.70;;;22.30;26.70;;;;;;5026811;28;20273;-58
2021/04/10 08:36:57;;;;;;;3.30;1.77;;;22.40;26.60;;;;;;5030538;28;20236;-58
2021/04/10 08:39:23;;;;;;;2.37;1.70;;;22.50;26.80;;;;;;5027129;28;20226;-58
2021/04/10 08:41:49;;;;;;;2.30;1.67;;;22.60;27.20;;;;;;5026776;28;21269;-58
2021/04/10 08:44:15;;;;;;;3.47;1.60;;;22.70;27.80;;;;;;5028837;28;20262;-59
2021/04/10 08:46:41;;;;;;;3.20;1.50;;;22.80;27.90;;;;;;5029714;28;20602;-56
2021/04/10 08:49:07;;;;;;;3.40;1.60;;;22.80;27.90;;;;;;5024614;28;20201;-57
2021/04/10 08:51:33;;;;;;;2.63;1.43;;;22.80;28.30;;;;;;5029402;28;20404;-57
2021/04/10 08:53:59;;;;;;;3.13;1.30;;;22.90;29.40;;;;;;5029865;28;20210;-58
2021/04/10 08:56:25;;;;;;;3.10;1.80;;;22.90;28.80;;;;;;5027321;28;20299;-58
2021/04/10 08:58:51;;;;;;;3.47;1.60;;;22.90;29.00;;;;;;5027191;28;20247;-61
2021/04/10 09:01:17;;;;;;;5.77;1.90;;;22.80;28.10;;;;;;5023875;28;20216;-60
2021/04/10 09:03:43;;;;;;;3.93;1.70;;;22.80;28.20;;;;;;5029496;28;20202;-59
2021/04/10 09:06:09;;;;;;;1.97;1.77;;;22.90;29.00;;;;;;5030762;28;20259;-58
2021/04/10 09:08:35;;;;;;;2.53;1.60;;;22.90;28.90;;;;;;5029748;28;20535;-57
2021/04/10 09:11:03;;;;;;;4.73;1.90;;;22.90;28.90;;;;;;5028419;28;20217;-56
2021/04/10 09:13:29;;;;;;;7.87;2.50;;;22.80;28.50;;;;;;5030036;28;20314;-47
2021/04/10 09:15:55;;;;;;;5.00;2.17;;;22.60;24.80;;;;;;5029680;28;20209;-51
2021/04/10 09:18:21;;;;;;;4.57;2.10;;;22.10;25.10;;;;;;5028730;28;20257;-46
2021/04/10 09:20:48;;;;;;;3.43;1.60;;;21.70;24.80;;;;;;5026690;28;20200;-49
2021/04/10 09:23:14;;;;;;;4.97;2.10;;;21.50;24.10;;;;;;5028439;28;20205;-57
2021/04/10 09:25:40;;;;;;;4.60;1.87;;;21.70;24.90;;;;;;5030371;28;20210;-52
2021/04/10 09:28:06;;;;;;;3.83;1.67;;;22.00;26.70;;;;;;5029610;28;20227;-48
2021/04/10 09:30:32;;;;;;;4.33;1.80;;;22.20;26.10;;;;;;5029300;28;20601;-49
2021/04/10 09:32:58;;;;;;;3.47;1.93;;;22.30;25.00;;;;;;5030965;28;20200;-47
2021/04/10 09:35:24;;;;;;;3.00;1.90;;;22.30;25.20;;;;;;5030579;28;20200;-46
2021/04/10 09:37:50;;;;;;;3.67;2.10;;;22.40;25.40;;;;;;5034493;28;20233;-45
2021/04/10 09:40:19;;;;;;;5.03;2.20;;;22.40;25.40;;;;;;5031998;28;20212;-52
2021/04/10 09:42:45;;;;;;;3.57;1.73;;;22.40;25.20;;;;;;5033276;28;20209;-48
2021/04/10 09:45:11;;;;;;;3.93;2.00;;;22.40;25.00;;;;;;5032434;28;20680;-47
2021/04/10 09:47:37;;;;;;;1.97;1.50;;;22.50;25.30;;;;;;5033617;28;20235;-50
2021/04/10 09:50:03;;;;;;;4.23;1.80;;;22.50;24.80;;;;;;5029789;28;20722;-52
2021/04/10 09:52:29;;;;;;;4.23;1.43;;;22.50;24.60;;;;;;5031017;28;20207;-51
2021/04/10 09:54:55;;;;;;;5.30;2.00;;;22.50;24.00;;;;;;5019732;28;20222;-45
2021/04/10 09:57:21;;;;;;;2.20;1.40;;;22.60;27.10;;;;;;5032406;28;20241;-49
2021/04/10 09:59:47;;;;;;;6.30;2.67;;;22.80;26.30;;;;;;5031954;28;20213;-52
2021/04/10 10:02:13;;;;;;;3.17;1.73;;;22.90;26.50;;;;;;5032428;28;20570;-52
2021/04/10 10:04:39;;;;;;;3.53;2.13;;;22.90;26.40;;;;;;5033302;28;20206;-49
2021/04/10 10:07:06;;;;;;;2.73;2.00;;;23.00;26.60;;;;;;5032289;28;20659;-53
2021/04/10 10:09:32;;;;;;;2.27;1.53;;;22.90;26.20;;;;;;5033079;28;20202;-53
2021/04/10 10:11:58;;;;;;;4.90;1.67;;;22.80;25.60;;;;;;5032716;28;20206;-52
2021/04/10 10:14:24;;;;;;;3.03;1.80;;;22.80;25.10;;;;;;5033043;28;20680;-55
2021/04/10 10:16:50;;;;;;;3.67;1.70;;;22.80;25.50;;;;;;5031968;28;20234;-56
2021/04/10 10:19:16;;;;;;;2.47;1.70;;;22.80;25.40;;;;;;5032951;28;20223;-56
2021/04/10 10:21:42;;;;;;;2.97;1.80;;;22.80;25.80;;;;;;5032155;28;20271;-53
2021/04/10 10:24:08;;;;;;;3.40;2.00;;;22.80;26.10;;;;;;5032971;28;20558;-50
2021/04/10 10:26:36;;;;;;;5.13;2.00;;;22.80;26.50;;;;;;5031640;28;20226;-48
2021/04/10 10:29:02;;;;;;;4.23;1.63;;;22.80;26.10;;;;;;5032571;28;20538;-44
2021/04/10 10:31:28;;;;;;;3.80;2.00;;;22.80;25.80;;;;;;5032039;28;20198;-55
2021/04/10 10:33:54;;;;;;;2.13;1.80;;;22.80;26.10;;;;;;5032784;28;20207;-46
2021/04/10 10:36:20;;;;;;;4.00;2.07;;;22.80;26.30;;;;;;5032483;28;20698;-53
2021/04/10 10:38:46;;;;;;;2.23;1.43;;;22.70;25.40;;;;;;5032501;28;20243;-53
2021/04/10 10:41:12;;;;;;;3.73;1.90;;;22.70;25.40;;;;;;5031482;28;20232;-50
2021/04/10 10:43:38;;;;;;;3.27;1.60;;;22.80;26.10;;;;;;5032386;28;20210;-55
2021/04/10 10:46:03;;;;;;;4.63;1.93;;;22.80;26.50;;;;;;5045237;22;20344;-49
2021/04/10 10:48:29;;;;;;;3.63;2.17;;;22.90;27.30;;;;;;4991564;28;20238;-55
2021/04/10 10:50:55;;;;;;;4.50;2.10;;;22.90;27.30;;;;;;4991865;28;20214;-48
2021/04/10 10:53:21;;;;;;;3.70;1.80;;;22.90;27.90;;;;;;4991934;28;20666;-49
2021/04/10 10:55:47;;;;;;;4.67;2.10;;;22.90;27.60;;;;;;4994983;28;20208;-48
2021/04/10 10:58:13;;;;;;;9.83;2.67;;;22.90;27.40;;;;;;5010056;28;20227;-48
2021/04/10 11:00:39;;;;;;;4.10;2.50;;;22.90;28.50;;;;;;5009700;28;20206;-47
2021/04/10 11:03:05;;;;;;;4.07;2.30;;;22.90;28.70;;;;;;5010513;28;20618;-49
2021/04/10 11:05:31;;;;;;;3.77;2.33;;;22.90;27.80;;;;;;5012070;28;20207;-54
2021/04/10 11:07:57;;;;;;;6.70;2.17;;;22.80;27.20;;;;;;5009353;28;20234;-49
2021/04/10 11:10:23;;;;;;;5.17;2.33;;;22.80;27.90;;;;;;5010714;28;20249;-45
2021/04/10 11:12:49;;;;;;;5.23;2.07;;;22.90;28.00;;;;;;5011431;28;20202;-51
2021/04/10 11:15:15;;;;;;;3.10;2.40;;;22.60;27.20;;;;;;5010943;28;20643;-45
2021/04/10 11:17:41;;;;;;;6.50;2.50;;;22.50;28.70;;;;;;4998969;28;20265;-49
2021/04/10 11:20:07;;;;;;;3.77;2.27;;;22.30;31.70;;;;;;4994712;28;20213;-53
2021/04/10 11:22:33;;;;;;;4.70;2.33;;;22.40;29.90;;;;;;5011046;28;20253;-53
2021/04/10 11:24:59;;;;;;;3.37;1.80;;;22.40;27.60;;;;;;5010581;28;20198;-60
2021/04/10 11:27:25;;;;;;;4.43;1.90;;;22.50;27.70;;;;;;5011621;28;20561;-52
2021/04/10 11:29:51;;;;;;;6.77;2.57;;;22.60;27.40;;;;;;5009311;28;20202;-51
2021/04/10 11:32:17;;;;;;;4.30;1.83;;;22.70;28.40;;;;;;5009858;28;20218;-54
2021/04/10 11:34:43;;;;;;;4.43;2.43;;;22.70;27.90;;;;;;5011543;28;20210;-50
2021/04/10 11:37:09;;;;;;;3.07;1.70;;;22.80;27.90;;;;;;5010807;28;20288;-50
2021/04/10 11:39:35;;;;;;;7.33;1.80;;;22.80;27.90;;;;;;5010878;28;20217;-53
2021/04/10 11:42:01;;;;;;;3.90;2.10;;;22.80;27.90;;;;;;5009434;28;20211;-51
2021/04/10 11:44:27;;;;;;;7.37;2.10;;;22.80;28.20;;;;;;5011336;28;20206;-52
2021/04/10 11:46:53;;;;;;;3.83;1.97;;;22.90;28.40;;;;;;5007683;28;20245;-51
2021/04/10 11:49:19;;;;;;;3.70;1.90;;;22.90;28.40;;;;;;5005881;28;20206;-53
2021/04/10 11:51:45;;;;;;;4.00;1.80;;;22.90;28.60;;;;;;4999684;28;20222;-54
2021/04/10 11:54:11;;;;;;;3.80;1.80;;;22.80;28.00;;;;;;5010777;28;20202;-54
2021/04/10 11:56:37;;;;;;;3.23;1.60;;;22.80;27.90;;;;;;5010375;28;20222;-52
2021/04/10 11:59:03;;;;;;;2.27;1.50;;;22.80;27.90;;;;;;5008706;28;20225;-54
2021/04/10 12:01:29;;;;;;;3.20;1.80;;;22.80;28.10;;;;;;5008366;28;20603;-51
2021/04/10 12:03:55;;;;;;;3.20;1.70;;;22.90;28.40;;;;;;5008151;28;20209;-53
2021/04/10 12:06:21;;;;;;;3.50;1.70;;;22.90;29.10;;;;;;5004459;28;20246;-52
2021/04/10 12:08:47;;;;;;;2.07;1.70;;;22.80;28.40;;;;;;5008335;28;20215;-50
2021/04/10 12:11:13;;;;;;;2.77;1.70;;;22.90;28.80;;;;;;5004466;28;20214;-50
2021/04/10 12:13:38;;;;;;;2.30;1.70;;;22.90;28.70;;;;;;5007993;28;20573;-53
2021/04/10 12:16:05;;;;;;;2.53;1.50;;;22.90;28.40;;;;;;5008037;28;20290;-53
2021/04/10 12:18:31;;;;;;;1.70;1.60;;;22.90;28.40;;;;;;5006867;28;20284;-53
2021/04/10 12:20:58;;;;;;;2.27;1.60;;;22.90;28.50;;;;;;5006037;28;20867;-50
2021/04/10 12:23:24;;;;;;;2.33;1.60;;;22.90;28.10;;;;;;5000461;28;20565;-54
2021/04/10 12:25:50;;;;;;;1.77;1.37;;;22.90;28.00;;;;;;5007345;28;20226;-50
2021/04/10 12:28:18;;;;;;;1.63;1.30;;;22.80;27.90;;;;;;5010110;28;20282;-50
2021/04/10 12:30:44;;;;;;;2.00;1.30;;;22.80;27.90;;;;;;5009907;28;20211;-53
2021/04/10 12:33:10;;;;;;;3.97;1.53;;;22.90;28.50;;;;;;5008949;28;20199;-55
2021/04/10 12:35:36;;;;;;;2.87;1.40;;;22.90;28.70;;;;;;5007617;28;20229;-55
2021/04/10 12:38:02;;;;;;;3.37;1.63;;;22.90;28.30;;;;;;5009744;28;20245;-51
2021/04/10 12:40:28;;;;;;;3.43;1.30;;;22.90;28.70;;;;;;5000394;28;20199;-47